Scroll down
FLIGHT INFORMATION
Malaysia Airlines

MAS172

At Arrival Gate

WMKK
 WSSS
DATE: 2018-10-27
GATE:  -
GATE DEPARTURE: 02:01
TAKEOFF: 02:06
DATE: 2018-10-27
GATE:  -
LANDING: 02:47
GATE ARRIVAL: 02:54
FLIGHT DATA
Crew: 
Speed: 
926 kph
Altitude: 
27,020 ft
Stage Length: 
297.5 km
Block Time: 
0.9 hrs
Flight Time: 
0.7 hrs
Fuel Used: 
9,643 kg
Cleared Route: 
TRACK DATA
50,000 ft 1,000 kts
AIRCRAFT INFO AND CUMULATIVE STATS
Aircraft Type: 
B744
Registration: 
SELCAL: 
CJDR
MSN/LN: 
27672 / 1091
Operator: 
Total Flights: 
8
Total Block Time: 
46.6 hrs
Total Flight Time: 
44 hrs
Total Fuel Used: 
539,122 kg
DATALINK LOG | Newest first | Current as of: 2022-09-27 07:17:28
LABEL SEQUENCE CONTENT Dn/Up
QD545402:54 73.8▼ Dn
QC472102:47▼ Dn
QB062702:06▼ Dn
QA010902:01 95.1▼ Dn
5U5323TAF WSSS 271100Z 2712/2818 VRB05KT 9999 FEW018CB SCT020 TEMPO 2805/2809 3000 TSRA FEW012CB BKN015▲ Up
5U5323TAF WMKK 271100Z 2712/2818 06005KT 9000 FEW017CB TEMPO 2712/2715 5000 TSRA FEW010 FEW016CB SCT024 BECMG 2716/2718 VRB03KT BECMG 2801/2803 19005KT 9999 PROB30 TEMPO 2807/2810 5000 TSRA FEW010 FEW017CB SCT018▲ Up
5S4602WMKK WSSS▼ Dn
2U5322WSSS 271630Z VRB01KT 9999 FEW018 BKN300 27/25 Q1012 NOSIG▲ Up
2U5322WMKK 271630Z 13003KT 060V170 7000 -RA FEW006 FEW017CB SCT028 BKN270 25/24 Q1012 RETSRA BECMG 8000 -RA▲ Up
2S4548WMKK WSSS▼ Dn


AIRCRAFT HISTORY
FLIGHT DATE FLIGHT NO. ORIGIN DESTINATION CLEARED ROUTE BLOCK TIME FLIGHT TIME FUEL USED PILOT
2018-11-12MAS8686KSEA KSEA 1.6 hrs1.5 hrs35,223 lbJhan Jensen
2018-11-11MAS166RJAA KSEA 9.2 hrs8.9 hrs201,004 lbJhan Jensen
2018-11-03MAS1WSSS RJAA IBIXU IBIVA DONDI DIVSA BTM DOGRA RUVIK HOSBA TOMAN VERIN LUSMO AKMON UDOSI ALDAS AGSAM ANOKI ARESI AKOTA AVMUP ALDIS ABVAR MEVIN MAGMA SADEK KAZIK AMMEK AZAMA TAMAK SHIBK YULIA NIKAI JERID MISAK BUNGU BAFFY CHEVY SYOYU ANGEL BINKS NR21C AF010 AF011 AF012 WEBBS NRE13 AF001 AF002 AF003 LAKES6.7 hrs6.5 hrs219,002 lbJhan Jensen
2018-10-27MAS172WMKK WSSS 0.9 hrs0.7 hrs21,258 lbJhan Jensen
2018-09-29MAS101PHNL WMKK 11.7 hrs11.4 hrs309,607 lbJhan Jensen
2018-09-03MAS100KSLC PHNL 5.9 hrs5.7 hrs131,351 lbJhan Jensen
2018-08-26MAS1EGLL KSLC 9.4 hrs9 hrs252,998 lbJhan Jensen
2018-08-25MAS999EGBP EGLL 1.1 hrs0.4 hrs18,117 lbJhan Jensen